sensor_id;sensor_type;location;lat;lon;timestamp;P1;durP1;ratioP1;P2;durP2;ratioP2
46757;SDS011;32509;47.750;-3.396;2023-06-04T00:00:06;7.32;;;4.60;;
46757;SDS011;32509;47.750;-3.396;2023-06-04T00:02:33;6.43;;;3.83;;
46757;SDS011;32509;47.750;-3.396;2023-06-04T00:04:59;9.88;;;4.15;;
46757;SDS011;32509;47.750;-3.396;2023-06-04T00:07:25;7.45;;;4.30;;
46757;SDS011;32509;47.750;-3.396;2023-06-04T00:09:51;7.35;;;4.25;;
46757;SDS011;32509;47.750;-3.396;2023-06-04T00:12:18;8.73;;;5.00;;
46757;SDS011;32509;47.750;-3.396;2023-06-04T00:14:44;12.50;;;4.65;;
46757;SDS011;32509;47.750;-3.396;2023-06-04T00:17:10;11.77;;;4.72;;
46757;SDS011;32509;47.750;-3.396;2023-06-04T00:19:38;7.47;;;4.00;;
46757;SDS011;32509;47.750;-3.396;2023-06-04T00:22:05;8.95;;;3.78;;
46757;SDS011;32509;47.750;-3.396;2023-06-04T00:24:31;7.28;;;4.00;;
46757;SDS011;32509;47.750;-3.396;2023-06-04T00:26:57;7.22;;;4.45;;
46757;SDS011;32509;47.750;-3.396;2023-06-04T00:29:23;10.52;;;5.57;;
46757;SDS011;32509;47.750;-3.396;2023-06-04T00:31:49;11.82;;;4.75;;
46757;SDS011;32509;47.750;-3.396;2023-06-04T00:34:16;4.75;;;4.00;;
46757;SDS011;32509;47.750;-3.396;2023-06-04T00:36:43;9.80;;;4.07;;
46757;SDS011;32509;47.750;-3.396;2023-06-04T00:39:08;7.85;;;4.30;;
46757;SDS011;32509;47.750;-3.396;2023-06-04T00:41:34;10.07;;;4.53;;
46757;SDS011;32509;47.750;-3.396;2023-06-04T00:44:00;8.07;;;3.85;;
46757;SDS011;32509;47.750;-3.396;2023-06-04T00:46:27;7.07;;;4.25;;
46757;SDS011;32509;47.750;-3.396;2023-06-04T00:48:54;7.57;;;4.38;;
46757;SDS011;32509;47.750;-3.396;2023-06-04T00:51:20;7.25;;;3.95;;
46757;SDS011;32509;47.750;-3.396;2023-06-04T00:53:50;7.38;;;4.25;;
46757;SDS011;32509;47.750;-3.396;2023-06-04T00:56:16;11.77;;;5.20;;
46757;SDS011;32509;47.750;-3.396;2023-06-04T00:58:43;6.70;;;3.92;;
46757;SDS011;32509;47.750;-3.396;2023-06-04T01:01:13;10.82;;;4.50;;
46757;SDS011;32509;47.750;-3.396;2023-06-04T01:04:00;7.95;;;4.32;;
46757;SDS011;32509;47.750;-3.396;2023-06-04T01:06:36;8.77;;;4.03;;
46757;SDS011;32509;47.750;-3.396;2023-06-04T01:09:04;7.60;;;4.43;;
46757;SDS011;32509;47.750;-3.396;2023-06-04T01:11:34;8.50;;;4.03;;
46757;SDS011;32509;47.750;-3.396;2023-06-04T01:14:02;6.93;;;4.53;;
46757;SDS011;32509;47.750;-3.396;2023-06-04T01:16:30;7.85;;;4.88;;
46757;SDS011;32509;47.750;-3.396;2023-06-04T01:19:16;7.73;;;3.70;;
46757;SDS011;32509;47.750;-3.396;2023-06-04T01:22:00;12.48;;;4.57;;
46757;SDS011;32509;47.750;-3.396;2023-06-04T01:24:29;7.13;;;4.03;;
46757;SDS011;32509;47.750;-3.396;2023-06-04T01:27:01;13.73;;;3.92;;
46757;SDS011;32509;47.750;-3.396;2023-06-04T01:29:29;9.77;;;3.83;;
46757;SDS011;32509;47.750;-3.396;2023-06-04T01:31:55;11.98;;;5.53;;
46757;SDS011;32509;47.750;-3.396;2023-06-04T01:34:21;7.70;;;3.83;;
46757;SDS011;32509;47.750;-3.396;2023-06-04T01:36:48;7.68;;;3.83;;
46757;SDS011;32509;47.750;-3.396;2023-06-04T01:39:13;10.25;;;4.97;;
46757;SDS011;32509;47.750;-3.396;2023-06-04T01:41:39;7.70;;;4.40;;
46757;SDS011;32509;47.750;-3.396;2023-06-04T01:44:05;9.48;;;4.05;;
46757;SDS011;32509;47.750;-3.396;2023-06-04T01:46:31;10.05;;;4.32;;
46757;SDS011;32509;47.750;-3.396;2023-06-04T01:48:56;8.63;;;3.95;;
46757;SDS011;32509;47.750;-3.396;2023-06-04T01:51:22;8.63;;;4.78;;
46757;SDS011;32509;47.750;-3.396;2023-06-04T01:53:48;8.57;;;3.92;;
46757;SDS011;32509;47.750;-3.396;2023-06-04T01:56:13;7.25;;;3.63;;
46757;SDS011;32509;47.750;-3.396;2023-06-04T01:58:39;9.93;;;4.85;;
46757;SDS011;32509;47.750;-3.396;2023-06-04T02:01:05;12.65;;;4.50;;
46757;SDS011;32509;47.750;-3.396;2023-06-04T02:03:31;8.20;;;3.83;;
46757;SDS011;32509;47.750;-3.396;2023-06-04T02:06:02;10.77;;;3.63;;
46757;SDS011;32509;47.750;-3.396;2023-06-04T02:08:29;8.88;;;4.55;;
46757;SDS011;32509;47.750;-3.396;2023-06-04T02:10:55;9.32;;;4.00;;
46757;SDS011;32509;47.750;-3.396;2023-06-04T02:13:21;9.10;;;3.88;;
46757;SDS011;32509;47.750;-3.396;2023-06-04T02:15:47;11.15;;;4.00;;
46757;SDS011;32509;47.750;-3.396;2023-06-04T02:18:14;11.10;;;4.47;;
46757;SDS011;32509;47.750;-3.396;2023-06-04T02:20:44;6.40;;;3.70;;
46757;SDS011;32509;47.750;-3.396;2023-06-04T02:23:11;12.10;;;4.20;;
46757;SDS011;32509;47.750;-3.396;2023-06-04T02:25:37;9.45;;;3.90;;
46757;SDS011;32509;47.750;-3.396;2023-06-04T02:28:02;6.25;;;3.83;;
46757;SDS011;32509;47.750;-3.396;2023-06-04T02:30:28;9.32;;;3.80;;
46757;SDS011;32509;47.750;-3.396;2023-06-04T02:32:54;7.97;;;4.18;;
46757;SDS011;32509;47.750;-3.396;2023-06-04T02:35:21;6.45;;;4.07;;
46757;SDS011;32509;47.750;-3.396;2023-06-04T02:37:51;12.98;;;4.82;;
46757;SDS011;32509;47.750;-3.396;2023-06-04T02:40:17;11.52;;;3.97;;
46757;SDS011;32509;47.750;-3.396;2023-06-04T02:42:42;8.10;;;3.97;;
46757;SDS011;32509;47.750;-3.396;2023-06-04T02:45:09;8.70;;;3.83;;
46757;SDS011;32509;47.750;-3.396;2023-06-04T02:47:37;6.85;;;4.05;;
46757;SDS011;32509;47.750;-3.396;2023-06-04T02:50:03;8.10;;;3.67;;
46757;SDS011;32509;47.750;-3.396;2023-06-04T02:52:29;6.88;;;3.42;;
46757;SDS011;32509;47.750;-3.396;2023-06-04T02:54:55;7.65;;;3.85;;
46757;SDS011;32509;47.750;-3.396;2023-06-04T02:57:22;8.20;;;3.80;;
46757;SDS011;32509;47.750;-3.396;2023-06-04T02:59:48;5.97;;;4.18;;
46757;SDS011;32509;47.750;-3.396;2023-06-04T03:02:14;4.63;;;3.60;;
46757;SDS011;32509;47.750;-3.396;2023-06-04T03:04:42;8.07;;;3.65;;
46757;SDS011;32509;47.750;-3.396;2023-06-04T03:07:09;9.48;;;3.92;;
46757;SDS011;32509;47.750;-3.396;2023-06-04T03:09:36;7.65;;;4.03;;
46757;SDS011;32509;47.750;-3.396;2023-06-04T03:12:02;10.60;;;3.58;;
46757;SDS011;32509;47.750;-3.396;2023-06-04T03:14:29;7.75;;;3.42;;
46757;SDS011;32509;47.750;-3.396;2023-06-04T03:17:00;8.55;;;4.65;;
46757;SDS011;32509;47.750;-3.396;2023-06-04T03:19:35;5.53;;;3.42;;
46757;SDS011;32509;47.750;-3.396;2023-06-04T03:22:03;7.75;;;3.85;;
46757;SDS011;32509;47.750;-3.396;2023-06-04T03:24:37;8.27;;;4.63;;
46757;SDS011;32509;47.750;-3.396;2023-06-04T03:27:04;6.28;;;3.80;;
46757;SDS011;32509;47.750;-3.396;2023-06-04T03:29:32;8.32;;;3.63;;
46757;SDS011;32509;47.750;-3.396;2023-06-04T03:31:59;7.07;;;3.10;;
46757;SDS011;32509;47.750;-3.396;2023-06-04T03:34:25;6.13;;;3.30;;
46757;SDS011;32509;47.750;-3.396;2023-06-04T03:36:52;7.47;;;3.40;;
46757;SDS011;32509;47.750;-3.396;2023-06-04T03:39:19;6.90;;;3.28;;
46757;SDS011;32509;47.750;-3.396;2023-06-04T03:41:45;7.70;;;3.92;;
46757;SDS011;32509;47.750;-3.396;2023-06-04T03:44:14;7.10;;;3.60;;
46757;SDS011;32509;47.750;-3.396;2023-06-04T03:46:41;8.95;;;4.07;;
46757;SDS011;32509;47.750;-3.396;2023-06-04T03:49:08;8.13;;;3.67;;
46757;SDS011;32509;47.750;-3.396;2023-06-04T03:51:35;7.25;;;3.30;;
46757;SDS011;32509;47.750;-3.396;2023-06-04T03:54:04;6.43;;;3.97;;
46757;SDS011;32509;47.750;-3.396;2023-06-04T03:56:30;8.05;;;3.50;;
46757;SDS011;32509;47.750;-3.396;2023-06-04T03:58:57;5.30;;;3.90;;
46757;SDS011;32509;47.750;-3.396;2023-06-04T04:01:23;9.50;;;3.53;;
46757;SDS011;32509;47.750;-3.396;2023-06-04T04:03:49;5.40;;;3.50;;
46757;SDS011;32509;47.750;-3.396;2023-06-04T04:06:16;11.48;;;4.05;;
46757;SDS011;32509;47.750;-3.396;2023-06-04T04:08:42;5.47;;;2.72;;
46757;SDS011;32509;47.750;-3.396;2023-06-04T04:11:11;12.00;;;3.45;;
46757;SDS011;32509;47.750;-3.396;2023-06-04T04:13:38;4.35;;;2.88;;
46757;SDS011;32509;47.750;-3.396;2023-06-04T04:16:04;5.10;;;3.45;;
46757;SDS011;32509;47.750;-3.396;2023-06-04T04:18:34;5.65;;;3.40;;
46757;SDS011;32509;47.750;-3.396;2023-06-04T04:21:01;6.45;;;3.30;;
46757;SDS011;32509;47.750;-3.396;2023-06-04T04:23:28;7.22;;;3.50;;
46757;SDS011;32509;47.750;-3.396;2023-06-04T04:25:54;7.13;;;3.13;;
46757;SDS011;32509;47.750;-3.396;2023-06-04T04:28:24;5.78;;;3.80;;
46757;SDS011;32509;47.750;-3.396;2023-06-04T04:30:53;6.60;;;3.22;;
46757;SDS011;32509;47.750;-3.396;2023-06-04T04:33:19;4.88;;;3.05;;
46757;SDS011;32509;47.750;-3.396;2023-06-04T04:35:45;4.90;;;2.42;;
46757;SDS011;32509;47.750;-3.396;2023-06-04T04:38:13;6.00;;;2.63;;
46757;SDS011;32509;47.750;-3.396;2023-06-04T04:40:38;6.70;;;3.05;;
46757;SDS011;32509;47.750;-3.396;2023-06-04T04:43:04;11.55;;;3.80;;
46757;SDS011;32509;47.750;-3.396;2023-06-04T04:45:30;9.43;;;4.90;;
46757;SDS011;32509;47.750;-3.396;2023-06-04T04:47:56;5.38;;;2.65;;
46757;SDS011;32509;47.750;-3.396;2023-06-04T04:50:22;9.85;;;2.75;;
46757;SDS011;32509;47.750;-3.396;2023-06-04T04:52:47;7.22;;;3.15;;
46757;SDS011;32509;47.750;-3.396;2023-06-04T04:55:13;6.40;;;2.95;;
46757;SDS011;32509;47.750;-3.396;2023-06-04T04:57:39;6.32;;;2.90;;
46757;SDS011;32509;47.750;-3.396;2023-06-04T05:00:05;5.07;;;3.08;;
46757;SDS011;32509;47.750;-3.396;2023-06-04T05:02:37;8.75;;;3.05;;
46757;SDS011;32509;47.750;-3.396;2023-06-04T05:05:03;10.30;;;3.00;;
46757;SDS011;32509;47.750;-3.396;2023-06-04T05:07:29;8.63;;;3.10;;
46757;SDS011;32509;47.750;-3.396;2023-06-04T05:09:55;5.20;;;2.72;;
46757;SDS011;32509;47.750;-3.396;2023-06-04T05:12:21;6.30;;;2.97;;
46757;SDS011;32509;47.750;-3.396;2023-06-04T05:14:50;5.60;;;2.55;;
46757;SDS011;32509;47.750;-3.396;2023-06-04T05:17:16;7.13;;;3.25;;
46757;SDS011;32509;47.750;-3.396;2023-06-04T05:19:46;7.72;;;3.15;;
46757;SDS011;32509;47.750;-3.396;2023-06-04T05:22:12;9.15;;;2.63;;
46757;SDS011;32509;47.750;-3.396;2023-06-04T05:24:40;9.93;;;2.55;;
46757;SDS011;32509;47.750;-3.396;2023-06-04T05:27:06;13.40;;;3.72;;
46757;SDS011;32509;47.750;-3.396;2023-06-04T05:29:34;9.75;;;3.13;;
46757;SDS011;32509;47.750;-3.396;2023-06-04T05:32:00;7.30;;;2.80;;
46757;SDS011;32509;47.750;-3.396;2023-06-04T05:34:26;7.47;;;3.17;;
46757;SDS011;32509;47.750;-3.396;2023-06-04T05:36:51;5.15;;;2.88;;
46757;SDS011;32509;47.750;-3.396;2023-06-04T05:39:17;6.72;;;3.08;;
46757;SDS011;32509;47.750;-3.396;2023-06-04T05:41:43;6.00;;;3.03;;
46757;SDS011;32509;47.750;-3.396;2023-06-04T05:44:10;5.15;;;2.75;;
46757;SDS011;32509;47.750;-3.396;2023-06-04T05:46:36;5.78;;;2.50;;
46757;SDS011;32509;47.750;-3.396;2023-06-04T05:49:02;5.93;;;3.03;;
46757;SDS011;32509;47.750;-3.396;2023-06-04T05:51:27;9.70;;;3.63;;
46757;SDS011;32509;47.750;-3.396;2023-06-04T05:53:53;4.32;;;1.77;;
46757;SDS011;32509;47.750;-3.396;2023-06-04T05:56:20;4.47;;;2.60;;
46757;SDS011;32509;47.750;-3.396;2023-06-04T05:58:51;4.93;;;2.05;;
46757;SDS011;32509;47.750;-3.396;2023-06-04T06:01:17;6.53;;;2.85;;
46757;SDS011;32509;47.750;-3.396;2023-06-04T06:03:43;8.40;;;2.97;;
46757;SDS011;32509;47.750;-3.396;2023-06-04T06:06:09;6.28;;;3.08;;
46757;SDS011;32509;47.750;-3.396;2023-06-04T06:08:38;6.07;;;2.38;;
46757;SDS011;32509;47.750;-3.396;2023-06-04T06:11:03;7.20;;;2.65;;
46757;SDS011;32509;47.750;-3.396;2023-06-04T06:13:30;7.65;;;2.55;;
46757;SDS011;32509;47.750;-3.396;2023-06-04T06:15:56;5.78;;;2.72;;
46757;SDS011;32509;47.750;-3.396;2023-06-04T06:18:22;7.15;;;2.65;;
46757;SDS011;32509;47.750;-3.396;2023-06-04T06:20:48;4.15;;;3.17;;
46757;SDS011;32509;47.750;-3.396;2023-06-04T06:23:13;5.00;;;2.35;;
46757;SDS011;32509;47.750;-3.396;2023-06-04T06:25:40;8.13;;;3.17;;
46757;SDS011;32509;47.750;-3.396;2023-06-04T06:28:06;8.27;;;3.00;;
46757;SDS011;32509;47.750;-3.396;2023-06-04T06:30:32;4.07;;;2.33;;
46757;SDS011;32509;47.750;-3.396;2023-06-04T06:32:58;11.43;;;2.80;;
46757;SDS011;32509;47.750;-3.396;2023-06-04T06:35:23;7.88;;;2.72;;
46757;SDS011;32509;47.750;-3.396;2023-06-04T06:37:49;5.35;;;2.47;;
46757;SDS011;32509;47.750;-3.396;2023-06-04T06:40:15;5.60;;;2.88;;
46757;SDS011;32509;47.750;-3.396;2023-06-04T06:42:41;6.97;;;2.17;;
46757;SDS011;32509;47.750;-3.396;2023-06-04T06:45:07;5.80;;;2.50;;
46757;SDS011;32509;47.750;-3.396;2023-06-04T06:47:32;4.20;;;2.55;;
46757;SDS011;32509;47.750;-3.396;2023-06-04T06:49:58;7.28;;;2.25;;
46757;SDS011;32509;47.750;-3.396;2023-06-04T06:52:24;4.97;;;2.08;;
46757;SDS011;32509;47.750;-3.396;2023-06-04T06:54:50;7.25;;;2.55;;
46757;SDS011;32509;47.750;-3.396;2023-06-04T06:57:15;5.97;;;2.75;;
46757;SDS011;32509;47.750;-3.396;2023-06-04T06:59:42;7.80;;;2.42;;
46757;SDS011;32509;47.750;-3.396;2023-06-04T07:02:07;5.47;;;1.80;;
46757;SDS011;32509;47.750;-3.396;2023-06-04T07:04:33;7.07;;;2.97;;
46757;SDS011;32509;47.750;-3.396;2023-06-04T07:06:59;4.97;;;2.30;;
46757;SDS011;32509;47.750;-3.396;2023-06-04T07:09:25;6.07;;;2.47;;
46757;SDS011;32509;47.750;-3.396;2023-06-04T07:11:51;7.80;;;2.80;;
46757;SDS011;32509;47.750;-3.396;2023-06-04T07:14:17;4.57;;;2.15;;
46757;SDS011;32509;47.750;-3.396;2023-06-04T07:16:42;10.10;;;2.00;;
46757;SDS011;32509;47.750;-3.396;2023-06-04T07:19:08;5.57;;;2.53;;
46757;SDS011;32509;47.750;-3.396;2023-06-04T07:21:34;7.88;;;2.47;;
46757;SDS011;32509;47.750;-3.396;2023-06-04T07:24:00;6.68;;;2.40;;
46757;SDS011;32509;47.750;-3.396;2023-06-04T07:26:25;2.55;;;1.73;;
46757;SDS011;32509;47.750;-3.396;2023-06-04T07:28:55;7.28;;;2.10;;
46757;SDS011;32509;47.750;-3.396;2023-06-04T07:31:22;8.05;;;3.83;;
46757;SDS011;32509;47.750;-3.396;2023-06-04T07:33:48;4.35;;;1.88;;
46757;SDS011;32509;47.750;-3.396;2023-06-04T07:36:13;7.43;;;3.03;;
46757;SDS011;32509;47.750;-3.396;2023-06-04T07:38:40;5.43;;;2.40;;
46757;SDS011;32509;47.750;-3.396;2023-06-04T07:41:06;7.03;;;2.30;;
46757;SDS011;32509;47.750;-3.396;2023-06-04T07:43:33;2.70;;;1.83;;
46757;SDS011;32509;47.750;-3.396;2023-06-04T07:46:00;4.18;;;1.90;;
46757;SDS011;32509;47.750;-3.396;2023-06-04T07:48:29;7.85;;;3.10;;
46757;SDS011;32509;47.750;-3.396;2023-06-04T07:50:57;3.72;;;2.30;;
46757;SDS011;32509;47.750;-3.396;2023-06-04T07:53:24;3.67;;;2.15;;
46757;SDS011;32509;47.750;-3.396;2023-06-04T07:55:50;6.00;;;2.10;;
46757;SDS011;32509;47.750;-3.396;2023-06-04T07:58:16;5.18;;;2.50;;
46757;SDS011;32509;47.750;-3.396;2023-06-04T08:00:42;5.32;;;2.38;;
46757;SDS011;32509;47.750;-3.396;2023-06-04T08:03:08;7.72;;;2.67;;
46757;SDS011;32509;47.750;-3.396;2023-06-04T08:05:35;5.07;;;3.42;;
46757;SDS011;32509;47.750;-3.396;2023-06-04T08:08:01;5.25;;;2.15;;
46757;SDS011;32509;47.750;-3.396;2023-06-04T08:10:27;4.22;;;2.28;;
46757;SDS011;32509;47.750;-3.396;2023-06-04T08:12:53;4.10;;;2.28;;
46757;SDS011;32509;47.750;-3.396;2023-06-04T08:15:19;5.88;;;2.50;;
46757;SDS011;32509;47.750;-3.396;2023-06-04T08:17:44;3.70;;;2.67;;
46757;SDS011;32509;47.750;-3.396;2023-06-04T08:20:10;5.95;;;2.10;;
46757;SDS011;32509;47.750;-3.396;2023-06-04T08:22:36;5.47;;;2.38;;
46757;SDS011;32509;47.750;-3.396;2023-06-04T08:25:02;2.85;;;2.22;;
46757;SDS011;32509;47.750;-3.396;2023-06-04T08:27:31;4.82;;;2.50;;
46757;SDS011;32509;47.750;-3.396;2023-06-04T08:29:57;5.60;;;2.35;;
46757;SDS011;32509;47.750;-3.396;2023-06-04T08:32:23;9.88;;;4.00;;
46757;SDS011;32509;47.750;-3.396;2023-06-04T08:34:49;4.43;;;2.30;;
46757;SDS011;32509;47.750;-3.396;2023-06-04T08:37:16;5.22;;;2.20;;
46757;SDS011;32509;47.750;-3.396;2023-06-04T08:39:42;8.80;;;2.20;;
46757;SDS011;32509;47.750;-3.396;2023-06-04T08:42:09;4.53;;;2.50;;
46757;SDS011;32509;47.750;-3.396;2023-06-04T08:44:41;5.15;;;2.15;;
46757;SDS011;32509;47.750;-3.396;2023-06-04T08:47:08;3.08;;;2.08;;
46757;SDS011;32509;47.750;-3.396;2023-06-04T08:49:38;7.60;;;3.22;;
46757;SDS011;32509;47.750;-3.396;2023-06-04T08:52:06;7.95;;;2.33;;
46757;SDS011;32509;47.750;-3.396;2023-06-04T08:54:32;3.13;;;1.77;;
46757;SDS011;32509;47.750;-3.396;2023-06-04T08:56:58;4.43;;;2.20;;
46757;SDS011;32509;47.750;-3.396;2023-06-04T08:59:27;4.25;;;2.20;;
46757;SDS011;32509;47.750;-3.396;2023-06-04T09:01:53;5.57;;;2.83;;
46757;SDS011;32509;47.750;-3.396;2023-06-04T09:04:19;2.50;;;2.17;;
46757;SDS011;32509;47.750;-3.396;2023-06-04T09:06:45;4.13;;;2.85;;
46757;SDS011;32509;47.750;-3.396;2023-06-04T09:09:12;9.63;;;2.75;;
46757;SDS011;32509;47.750;-3.396;2023-06-04T09:11:54;4.70;;;2.58;;
46757;SDS011;32509;47.750;-3.396;2023-06-04T09:14:22;4.05;;;1.92;;
46757;SDS011;32509;47.750;-3.396;2023-06-04T09:16:49;6.75;;;2.80;;
46757;SDS011;32509;47.750;-3.396;2023-06-04T09:19:16;6.20;;;2.45;;
46757;SDS011;32509;47.750;-3.396;2023-06-04T09:24:22;5.45;;;2.22;;
46757;SDS011;32509;47.750;-3.396;2023-06-04T09:26:49;5.03;;;2.60;;
46757;SDS011;32509;47.750;-3.396;2023-06-04T09:29:16;4.03;;;2.40;;
46757;SDS011;32509;47.750;-3.396;2023-06-04T09:31:45;3.78;;;2.25;;
46757;SDS011;32509;47.750;-3.396;2023-06-04T09:34:12;6.93;;;3.50;;
46757;SDS011;32509;47.750;-3.396;2023-06-04T09:36:39;4.35;;;2.50;;
46757;SDS011;32509;47.750;-3.396;2023-06-04T09:39:18;10.52;;;3.55;;
46757;SDS011;32509;47.750;-3.396;2023-06-04T09:41:44;4.25;;;2.22;;
46757;SDS011;32509;47.750;-3.396;2023-06-04T09:44:21;7.15;;;3.20;;
46757;SDS011;32509;47.750;-3.396;2023-06-04T09:46:53;6.07;;;2.60;;
46757;SDS011;32509;47.750;-3.396;2023-06-04T09:49:22;7.82;;;2.92;;
46757;SDS011;32509;47.750;-3.396;2023-06-04T09:51:48;4.68;;;2.65;;
46757;SDS011;32509;47.750;-3.396;2023-06-04T09:54:14;5.55;;;2.65;;
46757;SDS011;32509;47.750;-3.396;2023-06-04T09:56:41;5.70;;;3.00;;
46757;SDS011;32509;47.750;-3.396;2023-06-04T09:59:08;6.60;;;2.67;;
46757;SDS011;32509;47.750;-3.396;2023-06-04T10:01:35;6.32;;;2.60;;
46757;SDS011;32509;47.750;-3.396;2023-06-04T10:04:06;8.90;;;3.33;;
46757;SDS011;32509;47.750;-3.396;2023-06-04T10:06:33;5.95;;;2.65;;
46757;SDS011;32509;47.750;-3.396;2023-06-04T10:09:04;4.28;;;2.50;;
46757;SDS011;32509;47.750;-3.396;2023-06-04T10:11:39;6.03;;;2.85;;
46757;SDS011;32509;47.750;-3.396;2023-06-04T10:14:25;6.72;;;2.50;;
46757;SDS011;32509;47.750;-3.396;2023-06-04T10:16:54;5.05;;;3.15;;
46757;SDS011;32509;47.750;-3.396;2023-06-04T10:19:23;4.03;;;3.10;;
46757;SDS011;32509;47.750;-3.396;2023-06-04T10:21:50;7.60;;;2.67;;
46757;SDS011;32509;47.750;-3.396;2023-06-04T10:24:17;6.68;;;2.75;;
46757;SDS011;32509;47.750;-3.396;2023-06-04T10:26:45;6.07;;;3.00;;
46757;SDS011;32509;47.750;-3.396;2023-06-04T10:29:12;6.22;;;3.28;;
46757;SDS011;32509;47.750;-3.396;2023-06-04T10:31:39;5.82;;;2.83;;
46757;SDS011;32509;47.750;-3.396;2023-06-04T10:34:06;9.10;;;3.35;;
46757;SDS011;32509;47.750;-3.396;2023-06-04T10:36:41;5.68;;;2.95;;
46757;SDS011;32509;47.750;-3.396;2023-06-04T10:39:10;8.13;;;3.65;;
46757;SDS011;32509;47.750;-3.396;2023-06-04T10:41:36;2.83;;;2.30;;
46757;SDS011;32509;47.750;-3.396;2023-06-04T10:44:02;5.65;;;2.70;;
46757;SDS011;32509;47.750;-3.396;2023-06-04T10:46:41;7.30;;;3.08;;
46757;SDS011;32509;47.750;-3.396;2023-06-04T10:49:08;6.63;;;2.80;;
46757;SDS011;32509;47.750;-3.396;2023-06-04T10:51:36;4.70;;;3.75;;
46757;SDS011;32509;47.750;-3.396;2023-06-04T10:54:02;5.80;;;3.22;;
46757;SDS011;32509;47.750;-3.396;2023-06-04T10:56:29;7.20;;;2.92;;
46757;SDS011;32509;47.750;-3.396;2023-06-04T10:59:16;4.65;;;2.83;;
46757;SDS011;32509;47.750;-3.396;2023-06-04T11:01:43;4.07;;;3.17;;
46757;SDS011;32509;47.750;-3.396;2023-06-04T11:06:48;8.27;;;2.65;;
46757;SDS011;32509;47.750;-3.396;2023-06-04T11:09:37;6.32;;;3.03;;
46757;SDS011;32509;47.750;-3.396;2023-06-04T11:12:12;5.80;;;2.72;;
46757;SDS011;32509;47.750;-3.396;2023-06-04T11:14:37;7.82;;;3.00;;
46757;SDS011;32509;47.750;-3.396;2023-06-04T11:17:10;6.18;;;2.60;;
46757;SDS011;32509;47.750;-3.396;2023-06-04T11:19:36;6.30;;;3.10;;
46757;SDS011;32509;47.750;-3.396;2023-06-04T11:22:03;6.45;;;3.60;;
46757;SDS011;32509;47.750;-3.396;2023-06-04T11:24:30;6.20;;;2.97;;
46757;SDS011;32509;47.750;-3.396;2023-06-04T11:26:58;7.05;;;3.15;;
46757;SDS011;32509;47.750;-3.396;2023-06-04T11:29:27;5.47;;;3.92;;
46757;SDS011;32509;47.750;-3.396;2023-06-04T11:31:53;4.63;;;3.22;;
46757;SDS011;32509;47.750;-3.396;2023-06-04T11:34:27;4.38;;;2.88;;
46757;SDS011;32509;47.750;-3.396;2023-06-04T11:36:54;7.05;;;3.38;;
46757;SDS011;32509;47.750;-3.396;2023-06-04T11:39:20;4.00;;;2.78;;
46757;SDS011;32509;47.750;-3.396;2023-06-04T11:41:47;8.43;;;3.33;;
46757;SDS011;32509;47.750;-3.396;2023-06-04T11:44:17;3.22;;;2.92;;
46757;SDS011;32509;47.750;-3.396;2023-06-04T11:46:44;3.72;;;2.95;;
46757;SDS011;32509;47.750;-3.396;2023-06-04T11:49:16;4.63;;;3.28;;
46757;SDS011;32509;47.750;-3.396;2023-06-04T11:51:47;4.45;;;3.15;;
46757;SDS011;32509;47.750;-3.396;2023-06-04T11:56:43;5.03;;;3.35;;
46757;SDS011;32509;47.750;-3.396;2023-06-04T11:59:10;6.10;;;3.35;;
46757;SDS011;32509;47.750;-3.396;2023-06-04T12:01:40;4.32;;;3.00;;
46757;SDS011;32509;47.750;-3.396;2023-06-04T12:04:11;8.75;;;3.83;;
46757;SDS011;32509;47.750;-3.396;2023-06-04T12:06:38;4.25;;;3.72;;
46757;SDS011;32509;47.750;-3.396;2023-06-04T12:09:04;5.90;;;4.55;;
46757;SDS011;32509;47.750;-3.396;2023-06-04T12:11:33;4.25;;;3.55;;
46757;SDS011;32509;47.750;-3.396;2023-06-04T12:14:00;5.55;;;3.53;;
46757;SDS011;32509;47.750;-3.396;2023-06-04T12:16:30;6.80;;;4.55;;
46757;SDS011;32509;47.750;-3.396;2023-06-04T12:19:10;3.90;;;3.15;;
46757;SDS011;32509;47.750;-3.396;2023-06-04T12:21:37;4.57;;;3.35;;
46757;SDS011;32509;47.750;-3.396;2023-06-04T12:26:33;5.32;;;3.22;;
46757;SDS011;32509;47.750;-3.396;2023-06-04T12:29:15;5.93;;;3.13;;
46757;SDS011;32509;47.750;-3.396;2023-06-04T12:31:43;6.68;;;3.38;;
46757;SDS011;32509;47.750;-3.396;2023-06-04T12:34:10;5.15;;;3.10;;
46757;SDS011;32509;47.750;-3.396;2023-06-04T12:36:37;3.20;;;2.90;;
46757;SDS011;32509;47.750;-3.396;2023-06-04T12:39:04;5.78;;;3.88;;
46757;SDS011;32509;47.750;-3.396;2023-06-04T12:41:30;5.13;;;2.75;;
46757;SDS011;32509;47.750;-3.396;2023-06-04T12:43:58;4.07;;;3.20;;
46757;SDS011;32509;47.750;-3.396;2023-06-04T12:46:24;4.25;;;3.00;;
46757;SDS011;32509;47.750;-3.396;2023-06-04T12:48:51;4.28;;;3.88;;
46757;SDS011;32509;47.750;-3.396;2023-06-04T12:51:17;7.90;;;4.07;;
46757;SDS011;32509;47.750;-3.396;2023-06-04T12:53:43;5.57;;;3.50;;
46757;SDS011;32509;47.750;-3.396;2023-06-04T12:56:09;6.25;;;3.35;;
46757;SDS011;32509;47.750;-3.396;2023-06-04T12:58:36;7.55;;;3.13;;
46757;SDS011;32509;47.750;-3.396;2023-06-04T13:01:02;4.35;;;3.92;;
46757;SDS011;32509;47.750;-3.396;2023-06-04T13:03:29;6.75;;;3.10;;
46757;SDS011;32509;47.750;-3.396;2023-06-04T13:05:55;7.03;;;3.38;;
46757;SDS011;32509;47.750;-3.396;2023-06-04T13:08:22;5.32;;;3.80;;
46757;SDS011;32509;47.750;-3.396;2023-06-04T13:10:49;5.68;;;3.55;;
46757;SDS011;32509;47.750;-3.396;2023-06-04T13:13:16;5.10;;;3.85;;
46757;SDS011;32509;47.750;-3.396;2023-06-04T13:15:42;5.57;;;3.88;;
46757;SDS011;32509;47.750;-3.396;2023-06-04T13:18:08;4.82;;;3.13;;
46757;SDS011;32509;47.750;-3.396;2023-06-04T13:20:39;4.40;;;3.55;;
46757;SDS011;32509;47.750;-3.396;2023-06-04T13:23:05;5.55;;;3.97;;
46757;SDS011;32509;47.750;-3.396;2023-06-04T13:25:31;5.70;;;3.40;;
46757;SDS011;32509;47.750;-3.396;2023-06-04T13:28:03;7.20;;;3.58;;
46757;SDS011;32509;47.750;-3.396;2023-06-04T13:30:29;3.28;;;2.85;;
46757;SDS011;32509;47.750;-3.396;2023-06-04T13:32:55;4.38;;;3.58;;
46757;SDS011;32509;47.750;-3.396;2023-06-04T13:35:23;5.90;;;4.07;;
46757;SDS011;32509;47.750;-3.396;2023-06-04T13:37:50;8.40;;;4.22;;
46757;SDS011;32509;47.750;-3.396;2023-06-04T13:40:15;4.82;;;3.60;;
46757;SDS011;32509;47.750;-3.396;2023-06-04T13:42:41;6.13;;;3.75;;
46757;SDS011;32509;47.750;-3.396;2023-06-04T13:45:10;6.60;;;3.42;;
46757;SDS011;32509;47.750;-3.396;2023-06-04T13:47:36;5.93;;;3.47;;
46757;SDS011;32509;47.750;-3.396;2023-06-04T13:50:01;5.80;;;4.18;;
46757;SDS011;32509;47.750;-3.396;2023-06-04T13:52:28;5.18;;;3.70;;
46757;SDS011;32509;47.750;-3.396;2023-06-04T13:54:54;5.38;;;3.92;;
46757;SDS011;32509;47.750;-3.396;2023-06-04T13:57:22;5.10;;;3.67;;
46757;SDS011;32509;47.750;-3.396;2023-06-04T13:59:48;7.43;;;3.65;;
46757;SDS011;32509;47.750;-3.396;2023-06-04T14:02:14;7.63;;;3.42;;
46757;SDS011;32509;47.750;-3.396;2023-06-04T14:04:40;4.50;;;3.45;;
46757;SDS011;32509;47.750;-3.396;2023-06-04T14:07:06;4.57;;;3.55;;
46757;SDS011;32509;47.750;-3.396;2023-06-04T14:09:32;5.40;;;3.88;;
46757;SDS011;32509;47.750;-3.396;2023-06-04T14:11:58;5.53;;;4.20;;
46757;SDS011;32509;47.750;-3.396;2023-06-04T14:14:24;6.20;;;3.53;;
46757;SDS011;32509;47.750;-3.396;2023-06-04T14:16:49;4.90;;;4.38;;
46757;SDS011;32509;47.750;-3.396;2023-06-04T14:19:15;4.25;;;3.83;;
46757;SDS011;32509;47.750;-3.396;2023-06-04T14:21:41;4.18;;;3.40;;
46757;SDS011;32509;47.750;-3.396;2023-06-04T14:24:09;8.00;;;4.13;;
46757;SDS011;32509;47.750;-3.396;2023-06-04T14:26:35;4.85;;;4.15;;
46757;SDS011;32509;47.750;-3.396;2023-06-04T14:29:01;7.35;;;4.88;;
46757;SDS011;32509;47.750;-3.396;2023-06-04T14:31:27;4.97;;;4.20;;
46757;SDS011;32509;47.750;-3.396;2023-06-04T14:33:53;4.88;;;3.80;;
46757;SDS011;32509;47.750;-3.396;2023-06-04T14:36:18;4.38;;;3.75;;
46757;SDS011;32509;47.750;-3.396;2023-06-04T14:38:44;7.82;;;3.72;;
46757;SDS011;32509;47.750;-3.396;2023-06-04T14:41:11;7.40;;;4.30;;
46757;SDS011;32509;47.750;-3.396;2023-06-04T14:43:37;6.05;;;3.85;;